createdAt,value
2022-08-25T08:13:23.612Z,26.23
2022-08-25T08:17:32.124Z,26.19
2022-08-25T08:19:48.868Z,26.17
2022-08-25T08:20:43.112Z,26.16
2022-08-25T08:20:51.957Z,26.13
2022-08-25T08:21:52.479Z,26.34
2022-08-25T08:22:50.780Z,26.38
2022-08-25T08:23:51.443Z,26.39
2022-08-25T08:24:54.467Z,26.38
2022-08-25T08:25:50.577Z,26.51
2022-08-25T08:26:58.642Z,26.49
2022-08-25T08:27:55.096Z,26.53
2022-08-25T08:28:52.041Z,26.57
2022-08-25T08:29:50.500Z,26.46
2022-08-25T08:30:53.580Z,26.41
2022-08-25T08:31:50.536Z,26.32
2022-08-25T08:33:08.685Z,26.38
2022-08-25T08:33:52.543Z,26.39
2022-08-25T08:34:51.225Z,26.46
2022-08-25T08:35:50.435Z,26.41
2022-08-25T08:36:50.469Z,26.49
2022-08-25T08:37:52.556Z,26.47
2022-08-25T08:38:50.437Z,26.53
2022-08-25T08:39:50.515Z,26.78
2022-08-25T08:40:51.474Z,27.03
2022-08-25T08:42:07.727Z,27.12
2022-08-25T08:42:52.434Z,26.90
2022-08-25T08:43:50.379Z,26.75
2022-08-25T08:44:50.424Z,26.39
2022-08-25T08:45:50.475Z,26.41
2022-08-25T08:46:50.401Z,26.46
2022-08-25T08:47:50.326Z,26.36
2022-08-25T08:48:50.333Z,26.44
2022-08-25T08:49:50.278Z,26.28
2022-08-25T08:50:50.316Z,26.29
2022-08-25T08:51:50.314Z,26.32
2022-08-25T08:52:50.274Z,26.24
2022-08-25T08:53:50.307Z,26.44
2022-08-25T08:54:50.266Z,26.61
2022-08-25T08:55:52.651Z,26.71
2022-08-25T08:56:51.246Z,26.78
2022-08-25T08:57:50.273Z,26.61
2022-08-25T09:00:42.102Z,26.68
2022-08-25T09:02:51.576Z,27.08
2022-08-25T09:05:16.419Z,27.11
2022-08-25T09:05:23.653Z,27.27
2022-08-25T09:06:23.383Z,27.39
2022-08-25T09:14:12.011Z,28.05
2022-08-25T09:14:35.988Z,27.91
2022-08-25T09:15:41.314Z,27.76
2022-08-25T09:22:42.633Z,27.09
2022-08-25T09:25:07.936Z,26.93
2022-08-25T09:35:33.597Z,26.71
2022-08-25T09:35:40.698Z,26.71
2022-08-25T09:38:24.188Z,26.75
2022-08-25T09:40:42.724Z,26.71
2022-08-25T09:40:44.933Z,26.76
2022-08-25T09:41:46.269Z,26.78
2022-08-25T09:44:21.702Z,26.76
2022-08-25T09:44:26.072Z,26.88
2022-08-25T09:45:24.852Z,26.97
2022-08-25T09:46:27.113Z,26.98
2022-08-25T09:47:24.426Z,26.86
2022-08-25T09:48:24.540Z,26.76
2022-08-25T09:49:25.474Z,26.79
2022-08-25T09:50:25.416Z,26.61
2022-08-25T09:51:24.315Z,26.75
2022-08-25T09:52:25.206Z,26.78
2022-08-25T09:53:28.280Z,26.93
2022-08-25T09:56:16.572Z,27.12
2022-08-25T09:57:36.212Z,27.20
2022-08-25T09:57:38.741Z,27.35
2022-08-25T09:58:39.037Z,27.23
2022-08-25T09:59:37.826Z,27.18
2022-08-25T10:00:37.806Z,26.65
2022-08-25T10:01:37.910Z,26.66
2022-08-25T10:02:38.111Z,26.78
2022-08-25T10:03:38.255Z,27.18
2022-08-25T10:04:38.808Z,27.42
2022-08-25T10:05:39.421Z,27.63
2022-08-25T10:08:02.025Z,27.71
2022-08-25T10:08:04.288Z,27.93
2022-08-25T10:09:03.624Z,27.91
2022-08-25T10:10:03.725Z,27.65
2022-08-25T10:11:03.487Z,27.61
2022-08-25T10:12:04.048Z,27.33
2022-08-25T10:13:03.904Z,27.24
2022-08-25T10:17:16.067Z,26.90
2022-08-25T10:17:17.883Z,26.97
2022-08-25T10:18:18.152Z,27.02
2022-08-25T10:19:17.829Z,27.02
2022-08-25T10:20:19.682Z,27.01
2022-08-25T10:21:23.632Z,27.38
2022-08-25T10:22:18.405Z,27.35
2022-08-25T10:23:17.901Z,27.39
2022-08-25T10:24:17.784Z,27.71
2022-08-25T10:25:17.888Z,27.87
2022-08-25T10:30:56.214Z,27.45
2022-08-25T10:30:59.064Z,27.31
2022-08-25T10:31:59.175Z,27.21
2022-08-25T10:33:10.562Z,27.39
2022-08-25T10:33:59.506Z,27.53
2022-08-25T10:34:58.897Z,27.53
2022-08-25T10:35:59.048Z,27.66
2022-08-25T10:36:58.793Z,27.66
2022-08-25T10:37:58.765Z,27.76
2022-08-25T10:38:59.025Z,27.95
2022-08-25T10:41:22.350Z,28.18
2022-08-25T10:41:24.369Z,28.02
2022-08-25T10:42:25.888Z,28.03
2022-08-25T10:43:24.185Z,28.11
2022-08-25T10:44:23.937Z,28.23
2022-08-25T10:45:24.197Z,28.42
2022-08-25T10:46:24.019Z,28.45
2022-08-25T10:47:23.877Z,28.45
2022-08-25T10:48:24.033Z,28.25
2022-08-25T10:49:23.920Z,28.23
2022-08-25T10:50:24.058Z,28.11
2022-08-25T10:51:25.541Z,28.11
2022-08-25T10:52:26.012Z,28.38
2022-08-25T10:53:24.386Z,28.36
2022-08-25T10:54:52.049Z,28.32
2022-08-25T10:55:51.948Z,28.57
2022-08-25T10:57:01.804Z,28.74
2022-08-25T10:57:54.992Z,28.92
2022-08-25T10:58:51.649Z,29.02
2022-08-25T10:59:52.824Z,29.05
2022-08-25T11:02:16.567Z,28.89
2022-08-25T11:02:21.538Z,28.95
2022-08-25T11:03:28.332Z,29.07
2022-08-25T11:04:25.383Z,29.11
2022-08-25T11:05:24.602Z,28.79
2022-08-25T11:07:45.307Z,28.60
2022-08-25T11:07:53.564Z,28.70
2022-08-25T11:09:14.340Z,28.58
2022-08-25T11:10:00.663Z,28.60
2022-08-25T11:10:58.310Z,28.57
2022-08-25T11:11:52.036Z,28.62
2022-08-25T11:12:53.518Z,28.73
2022-08-25T11:13:51.840Z,29.02
2022-08-25T11:14:51.934Z,29.10
2022-08-25T11:16:15.538Z,28.79
2022-08-25T11:16:53.963Z,28.91
2022-08-25T11:17:51.771Z,28.65
2022-08-25T11:18:52.004Z,28.77
2022-08-25T11:19:51.770Z,28.45
2022-08-25T11:20:52.155Z,28.25
2022-08-25T11:23:15.868Z,28.21
2022-08-25T11:23:17.534Z,27.77
2022-08-25T11:24:17.939Z,27.72
2022-08-25T11:25:18.682Z,27.63
2022-08-25T11:26:17.728Z,27.87
2022-08-25T11:27:17.564Z,28.09
2022-08-25T11:28:17.579Z,28.43
2022-08-25T11:29:21.954Z,28.83
2022-08-25T11:30:19.864Z,29.12
2022-08-25T11:31:22.818Z,29.07
2022-08-25T11:32:36.998Z,29.12
2022-08-25T11:33:19.460Z,28.89
2022-08-25T11:34:19.485Z,28.83
2022-08-25T11:36:50.861Z,29.08
2022-08-25T11:39:34.651Z,29.23
2022-08-25T11:39:36.960Z,29.63
2022-08-25T11:40:36.367Z,30.00
2022-08-25T11:41:36.419Z,29.76
2022-08-25T11:44:00.791Z,29.63
2022-08-25T11:44:04.256Z,29.97
2022-08-25T11:45:03.755Z,29.85
2022-08-25T11:47:27.851Z,29.57
2022-08-25T11:47:29.778Z,30.38
2022-08-25T11:48:30.672Z,30.61
2022-08-25T11:49:40.247Z,30.67
2022-08-25T11:50:30.390Z,30.67
2022-08-25T11:51:55.384Z,29.99
2022-08-25T11:52:30.775Z,30.16
2022-08-25T11:53:32.764Z,30.03
2022-08-25T11:54:30.141Z,30.19
2022-08-25T11:55:29.900Z,30.18
2022-08-25T11:57:56.268Z,30.13
2022-08-25T11:58:04.534Z,29.89
2022-08-25T11:59:04.625Z,29.44
2022-08-25T12:00:04.733Z,29.11
2022-08-25T12:02:32.700Z,28.73
2022-08-25T12:06:33.454Z,29.21
2022-08-25T12:10:34.389Z,29.78
2022-08-25T12:11:34.948Z,29.85
2022-08-25T12:12:40.044Z,29.78
2022-08-25T12:13:43.788Z,29.63
2022-08-25T12:14:36.585Z,29.37
2022-08-25T12:18:50.314Z,29.99
2022-08-25T12:19:31.108Z,29.97
2022-08-25T12:20:29.967Z,30.16
2022-08-25T12:21:43.046Z,30.08
2022-08-25T12:23:54.874Z,29.58
2022-08-25T12:23:57.484Z,29.44
2022-08-25T12:24:56.939Z,29.58
2022-08-25T12:30:31.470Z,30.25
2022-08-25T12:31:55.701Z,30.25
2022-08-25T12:32:26.109Z,30.03
2022-08-25T12:34:52.613Z,29.73
2022-08-25T12:34:55.401Z,29.67
2022-08-25T12:36:16.069Z,29.57
2022-08-25T12:36:55.677Z,29.64
2022-08-25T12:38:01.468Z,29.62
2022-08-25T12:38:54.305Z,29.26
2022-08-25T12:39:54.399Z,29.08
2022-08-25T12:42:20.821Z,29.00
2022-08-25T12:42:26.190Z,28.97
2022-08-25T12:43:27.230Z,28.94
2022-08-25T12:44:25.713Z,29.25
2022-08-25T12:49:59.922Z,29.42
2022-08-25T12:53:03.424Z,29.44
2022-08-25T12:59:38.333Z,28.72
2022-08-25T13:00:02.086Z,28.87
2022-08-25T13:02:57.279Z,28.82
2022-08-25T13:03:14.073Z,28.74
2022-08-25T13:04:02.115Z,28.65
2022-08-25T13:06:29.691Z,28.77
2022-08-25T13:08:17.351Z,29.35
2022-08-25T13:22:40.128Z,30.48
2022-08-25T13:26:48.333Z,30.91
2022-08-25T13:29:25.782Z,31.10
2022-08-25T13:29:28.701Z,31.15
2022-08-25T13:39:52.770Z,29.45
2022-08-25T13:40:50.859Z,29.48
2022-08-25T13:41:28.586Z,29.81
2022-08-25T13:42:28.677Z,30.22
2022-08-25T13:43:27.590Z,30.64
2022-08-25T13:44:27.072Z,30.32
2022-08-25T13:45:27.016Z,30.18
2022-08-25T13:46:27.044Z,30.01
2022-08-25T13:47:26.931Z,29.82
2022-08-25T13:48:26.940Z,29.67
2022-08-25T13:49:26.947Z,29.52
2022-08-25T13:50:27.167Z,29.42
2022-08-25T13:51:31.410Z,29.58
2022-08-25T13:52:26.924Z,29.81
2022-08-25T13:53:26.864Z,30.21
2022-08-25T13:54:26.873Z,30.46
2022-08-25T13:55:27.849Z,30.57
2022-08-25T13:56:27.844Z,30.79
2022-08-25T13:57:26.941Z,31.12
2022-08-25T13:58:38.509Z,31.35
2022-08-25T13:59:27.798Z,31.20
2022-08-25T14:00:31.720Z,30.83
2022-08-25T14:01:48.499Z,30.44
2022-08-25T14:02:27.823Z,30.49
2022-08-25T14:03:31.176Z,30.10
2022-08-25T14:04:26.809Z,29.89
2022-08-25T14:05:26.765Z,29.81
2022-08-25T14:06:26.735Z,29.76
2022-08-25T14:07:26.741Z,29.67
2022-08-25T14:08:28.451Z,29.76
2022-08-25T14:09:28.162Z,29.82
2022-08-25T14:10:26.704Z,30.03
2022-08-25T14:11:26.707Z,29.97
2022-08-25T14:13:30.988Z,29.49
2022-08-25T14:14:27.642Z,29.60
2022-08-25T14:15:26.657Z,29.60
2022-08-25T14:16:27.123Z,29.57
2022-08-25T14:17:39.731Z,29.44
2022-08-25T14:18:27.618Z,29.37
2022-08-25T14:19:26.662Z,29.30
2022-08-25T14:20:26.590Z,29.25
2022-08-25T14:21:26.614Z,29.20
2022-08-25T14:22:26.815Z,29.21
2022-08-25T14:23:26.602Z,29.25
2022-08-25T14:24:26.561Z,29.21
2022-08-25T14:25:26.563Z,29.10
2022-08-25T14:26:26.734Z,29.10
2022-08-25T14:27:26.681Z,29.07
2022-08-25T14:28:26.547Z,29.17
2022-08-25T14:29:26.479Z,29.37
2022-08-25T14:30:28.958Z,29.55
2022-08-25T14:31:26.535Z,29.74
2022-08-25T14:32:26.463Z,29.52
2022-08-25T14:33:26.494Z,29.27
2022-08-25T14:34:26.438Z,29.17
2022-08-25T14:35:26.513Z,29.30
2022-08-25T14:36:26.427Z,29.23
2022-08-25T14:37:26.387Z,29.37
2022-08-25T14:38:26.443Z,29.33
2022-08-25T14:39:26.398Z,29.26
2022-08-25T14:40:28.873Z,29.32
2022-08-25T14:41:26.399Z,29.20
2022-08-25T14:42:26.430Z,29.20
2022-08-25T14:43:31.915Z,29.18
2022-08-25T14:44:27.417Z,29.10
2022-08-25T14:45:26.481Z,29.15
2022-08-25T14:46:26.354Z,29.15
2022-08-25T14:47:26.356Z,29.11
2022-08-25T14:48:26.294Z,29.10
2022-08-25T14:49:26.266Z,29.27
2022-08-25T14:50:26.295Z,29.47
2022-08-25T14:51:26.265Z,29.81
2022-08-25T14:52:26.279Z,30.18
2022-08-25T14:53:26.260Z,30.22
2022-08-25T14:54:26.400Z,30.56
2022-08-25T14:55:31.519Z,30.70
2022-08-25T14:56:27.682Z,30.78
2022-08-25T14:57:26.327Z,31.00
2022-08-25T14:58:26.789Z,31.07
2022-08-25T14:59:26.178Z,31.12
2022-08-25T15:00:26.186Z,31.05
2022-08-25T15:01:28.707Z,30.73
2022-08-25T15:02:29.311Z,30.49
2022-08-25T15:03:26.211Z,30.45
2022-08-25T15:04:26.226Z,30.30
2022-08-25T15:05:26.135Z,30.46
2022-08-25T15:06:26.099Z,30.57
2022-08-25T15:07:26.167Z,30.54
2022-08-25T15:08:28.917Z,30.56
2022-08-25T15:09:33.766Z,30.53
2022-08-25T15:10:27.048Z,30.76
2022-08-25T15:11:26.046Z,30.78
2022-08-25T15:12:46.201Z,30.49
2022-08-25T15:13:28.290Z,30.26
2022-08-25T15:14:29.041Z,30.29
2022-08-25T15:15:26.024Z,30.25
2022-08-25T15:16:34.036Z,30.25
2022-08-25T15:17:26.984Z,30.29
2022-08-25T15:18:25.985Z,30.36
2022-08-25T15:19:25.983Z,30.48
2022-08-25T15:20:26.060Z,30.46
2022-08-25T15:21:25.924Z,30.44
2022-08-25T15:22:27.143Z,30.15
2022-08-25T15:23:26.025Z,29.85
2022-08-25T15:24:25.957Z,29.64
2022-08-25T15:25:25.958Z,29.55
2022-08-25T15:26:25.897Z,29.58
2022-08-25T15:27:25.920Z,29.64
2022-08-25T15:28:26.869Z,29.76
2022-08-25T15:29:25.862Z,29.73
2022-08-25T15:30:30.709Z,29.78
2022-08-25T15:31:26.911Z,29.89
2022-08-25T15:32:25.879Z,29.85
2022-08-25T15:33:25.845Z,29.62
2022-08-25T15:34:25.848Z,29.51
2022-08-25T15:35:29.111Z,29.62
2022-08-25T15:36:25.772Z,29.60
2022-08-25T15:37:25.749Z,29.54
2022-08-25T15:38:25.745Z,29.63
2022-08-25T15:39:25.724Z,29.78
2022-08-25T15:40:25.829Z,29.73
2022-08-25T15:41:27.950Z,29.70
2022-08-25T15:42:25.795Z,29.85
2022-08-25T15:43:25.976Z,30.04
2022-08-25T15:44:29.193Z,30.26
2022-08-25T15:45:26.715Z,30.46
2022-08-25T15:46:25.775Z,30.59
2022-08-25T15:47:25.632Z,30.79
2022-08-25T15:48:26.240Z,30.76
2022-08-25T15:49:25.672Z,30.54
2022-08-25T15:50:26.315Z,30.29
2022-08-25T15:51:26.688Z,30.40
2022-08-25T15:52:28.347Z,30.54
2022-08-25T15:53:27.602Z,30.60
2022-08-25T15:54:26.709Z,30.49
2022-08-25T15:55:25.581Z,30.40
2022-08-25T15:56:26.994Z,30.28
2022-08-25T15:57:25.593Z,30.21
2022-08-25T15:58:25.593Z,30.25
2022-08-25T15:59:25.681Z,30.28
2022-08-25T16:00:25.553Z,30.06
2022-08-25T16:01:25.625Z,29.81
2022-08-25T16:02:25.625Z,29.66
2022-08-25T16:03:25.517Z,29.55
2022-08-25T16:04:25.507Z,29.74
2022-08-25T16:05:26.255Z,29.70
2022-08-25T16:06:26.477Z,29.51
2022-08-25T16:07:25.486Z,29.45
2022-08-25T16:08:25.509Z,29.60
2022-08-25T16:09:25.433Z,29.62
2022-08-25T16:10:25.488Z,29.69
2022-08-25T16:11:25.450Z,29.54
2022-08-25T16:12:25.393Z,29.42
2022-08-25T16:13:25.377Z,29.42
2022-08-25T16:14:25.392Z,29.42
2022-08-25T16:15:28.908Z,29.45
2022-08-25T16:16:25.555Z,29.60
2022-08-25T16:17:25.400Z,29.55
2022-08-25T16:18:25.346Z,29.62
2022-08-25T16:19:25.361Z,29.55
2022-08-25T16:20:25.322Z,29.49
2022-08-25T16:21:25.871Z,29.33
2022-08-25T16:22:25.385Z,29.25
2022-08-25T16:23:25.385Z,29.26
2022-08-25T16:24:25.351Z,29.35
2022-08-25T16:25:25.273Z,29.42
2022-08-25T16:26:25.271Z,29.45
2022-08-25T16:27:25.266Z,29.47
2022-08-25T16:28:25.250Z,29.52
2022-08-25T16:29:25.353Z,29.39
2022-08-25T16:30:25.327Z,29.45
2022-08-25T16:31:25.284Z,29.37
2022-08-25T16:32:25.202Z,29.37
2022-08-25T16:33:25.190Z,29.47
2022-08-25T16:34:28.737Z,29.37
2022-08-25T16:35:25.143Z,29.42
2022-08-25T16:36:25.216Z,29.45
2022-08-25T16:37:25.304Z,29.60
2022-08-25T16:38:25.412Z,29.45
2022-08-25T16:39:25.277Z,29.55
2022-08-25T16:40:25.246Z,29.57
2022-08-25T16:41:25.084Z,29.63
2022-08-25T16:42:26.070Z,29.51
2022-08-25T16:43:25.128Z,29.51
2022-08-25T16:44:25.709Z,29.62
2022-08-25T16:45:25.069Z,29.52
2022-08-25T16:46:25.139Z,29.48
2022-08-25T16:47:26.901Z,29.36
2022-08-25T16:48:25.030Z,29.32
2022-08-25T16:49:25.332Z,29.37
2022-08-25T16:50:25.025Z,29.36
2022-08-25T16:51:25.702Z,29.26
2022-08-25T16:52:24.981Z,29.26
2022-08-25T16:53:24.958Z,29.15
2022-08-25T16:54:25.041Z,29.26
2022-08-25T16:55:24.949Z,29.21
2022-08-25T16:56:24.953Z,29.21
2022-08-25T16:57:24.949Z,29.26
2022-08-25T16:58:24.935Z,29.45
2022-08-25T16:59:24.913Z,29.36
2022-08-25T17:00:25.034Z,29.36
2022-08-25T17:01:24.924Z,29.39
2022-08-25T17:02:24.944Z,29.39
2022-08-25T17:03:24.862Z,29.36
2022-08-25T17:04:29.478Z,29.37
2022-08-25T17:05:25.972Z,29.49
2022-08-25T17:06:24.827Z,29.47
2022-08-25T17:07:24.866Z,29.62
2022-08-25T17:08:24.826Z,29.60
2022-08-25T17:09:24.798Z,29.71
2022-08-25T17:10:24.774Z,29.63
2022-08-25T17:11:24.796Z,29.63
2022-08-25T17:12:25.267Z,29.51
2022-08-25T17:13:24.788Z,29.49
2022-08-25T17:14:24.760Z,29.64
2022-08-25T17:15:24.767Z,29.48
2022-08-25T17:16:24.850Z,29.49
2022-08-25T17:17:26.954Z,29.45
2022-08-25T17:18:24.732Z,29.42
2022-08-25T17:19:24.736Z,29.39
2022-08-25T17:20:24.671Z,29.39
2022-08-25T17:21:25.057Z,29.20
2022-08-25T17:22:24.686Z,29.35
2022-08-25T17:23:24.651Z,29.27
2022-08-25T17:24:29.229Z,29.21
2022-08-25T17:25:27.519Z,29.27
2022-08-25T17:26:27.758Z,29.15
2022-08-25T17:27:24.625Z,28.98
2022-08-25T17:28:24.631Z,28.88
2022-08-25T17:29:24.616Z,28.83
2022-08-25T17:30:24.588Z,28.95
2022-08-25T17:31:24.616Z,29.00
2022-08-25T17:32:28.961Z,29.05
2022-08-25T17:33:25.592Z,29.07
2022-08-25T17:34:24.561Z,29.00
2022-08-25T17:35:24.557Z,29.14
2022-08-25T17:36:27.170Z,29.14
2022-08-25T17:37:24.513Z,29.15
2022-08-25T17:38:24.510Z,29.21
2022-08-25T17:39:24.512Z,29.26
2022-08-25T17:40:24.990Z,29.21
2022-08-25T17:41:24.497Z,29.12
2022-08-25T17:42:24.462Z,29.07
2022-08-25T17:43:25.469Z,29.05
2022-08-25T17:44:24.428Z,28.85
2022-08-25T17:45:24.442Z,28.91
2022-08-25T17:46:24.560Z,28.79
2022-08-25T17:47:24.397Z,28.83
2022-08-25T17:48:24.397Z,28.88
2022-08-25T17:49:24.364Z,28.76
2022-08-25T17:50:24.403Z,28.91
2022-08-25T17:51:24.352Z,28.83
2022-08-25T17:52:25.581Z,28.88
2022-08-25T17:53:25.357Z,28.82
2022-08-25T17:54:24.377Z,28.74
2022-08-25T17:55:24.350Z,28.77
2022-08-25T17:56:24.337Z,28.74
2022-08-25T17:57:24.313Z,28.77
2022-08-25T17:58:24.282Z,28.69
2022-08-25T17:59:24.274Z,28.65
2022-08-25T18:00:24.288Z,28.58
2022-08-25T18:01:24.294Z,28.65
2022-08-25T18:02:24.262Z,28.60
2022-08-25T18:03:24.222Z,28.55
2022-08-25T18:04:24.229Z,28.55
2022-08-25T18:05:25.214Z,28.58
2022-08-25T18:06:24.262Z,28.55
2022-08-25T18:07:24.190Z,28.67
2022-08-25T18:08:29.259Z,28.62
2022-08-25T18:09:25.165Z,28.62
2022-08-25T18:10:24.171Z,28.55
2022-08-25T18:11:24.170Z,28.61
2022-08-25T18:12:24.155Z,28.48
2022-08-25T18:13:24.163Z,28.57
2022-08-25T18:14:25.645Z,28.46
2022-08-25T18:15:25.111Z,28.45
2022-08-25T18:16:24.661Z,28.45
2022-08-25T18:17:24.134Z,28.54
2022-08-25T18:18:24.247Z,28.30
2022-08-25T18:19:24.235Z,28.38
2022-08-25T18:20:24.087Z,28.25
2022-08-25T18:21:24.038Z,28.40
2022-08-25T18:22:24.047Z,28.33
2022-08-25T18:23:24.067Z,28.32
2022-08-25T18:24:24.067Z,28.18
2022-08-25T18:25:24.039Z,28.28
2022-08-25T18:26:25.462Z,28.20
2022-08-25T18:27:24.007Z,28.17
2022-08-25T18:28:23.983Z,28.15
2022-08-25T18:29:24.011Z,28.11
2022-08-25T18:30:23.991Z,28.08
2022-08-25T18:31:23.986Z,28.06
2022-08-25T18:32:26.138Z,28.09
2022-08-25T18:33:23.920Z,28.11
2022-08-25T18:34:23.912Z,28.01
2022-08-25T18:35:26.705Z,28.08
2022-08-25T18:36:23.888Z,27.98
2022-08-25T18:37:24.059Z,27.90
2022-08-25T18:38:23.899Z,27.78
2022-08-25T18:39:24.859Z,27.81
2022-08-25T18:40:24.021Z,27.72
2022-08-25T18:41:23.827Z,27.72
2022-08-25T18:42:23.884Z,27.78
2022-08-25T18:43:23.879Z,27.72
2022-08-25T18:44:23.781Z,27.72
2022-08-25T18:45:23.819Z,27.63
2022-08-25T18:46:23.800Z,27.62
2022-08-25T18:47:23.784Z,27.65
2022-08-25T18:48:23.777Z,27.63
2022-08-25T18:49:26.712Z,27.65
2022-08-25T18:50:23.748Z,27.69
2022-08-25T18:51:23.732Z,27.68
2022-08-25T18:52:23.697Z,27.58
2022-08-25T18:53:30.167Z,27.65
2022-08-25T18:54:24.729Z,27.53
2022-08-25T18:55:23.661Z,27.48
2022-08-25T18:56:23.709Z,27.45
2022-08-25T18:57:23.680Z,27.48
2022-08-25T18:58:23.665Z,27.42
2022-08-25T18:59:24.211Z,27.35
2022-08-25T19:00:23.637Z,27.33
2022-08-25T19:01:23.734Z,27.31
2022-08-25T19:02:24.560Z,27.31
2022-08-25T19:03:23.672Z,27.35
2022-08-25T19:04:31.223Z,27.42
2022-08-25T19:05:24.630Z,27.42
2022-08-25T19:06:23.557Z,27.46
2022-08-25T19:07:23.550Z,27.45
2022-08-25T19:08:23.541Z,27.43
2022-08-25T19:09:23.569Z,27.43
2022-08-25T19:10:24.075Z,27.39
2022-08-25T19:11:23.505Z,27.40
2022-08-25T19:12:23.497Z,27.31
2022-08-25T19:13:23.521Z,27.33
2022-08-25T19:14:23.527Z,27.28
2022-08-25T19:15:24.905Z,27.34
2022-08-25T19:16:23.541Z,27.39
2022-08-25T19:17:24.741Z,27.35
2022-08-25T19:18:28.900Z,27.27
2022-08-25T19:19:23.443Z,27.34
2022-08-25T19:20:23.638Z,27.20
2022-08-25T19:21:23.426Z,26.93
2022-08-25T19:22:40.601Z,26.81
2022-08-25T19:23:25.418Z,26.69
2022-08-25T19:24:23.361Z,26.36
2022-08-25T19:25:23.383Z,26.35
2022-08-25T19:26:23.370Z,26.08
2022-08-25T19:27:23.327Z,26.19
2022-08-25T19:28:23.395Z,26.31
2022-08-25T19:29:23.309Z,26.28
2022-08-25T19:30:23.322Z,26.29
2022-08-25T19:31:23.403Z,26.42
2022-08-25T19:32:23.291Z,26.47
2022-08-25T19:33:42.180Z,26.42
2022-08-25T19:34:24.236Z,26.46
2022-08-25T19:35:23.230Z,26.49
2022-08-25T19:36:23.243Z,26.41
2022-08-25T19:37:23.239Z,26.38
2022-08-25T19:38:33.932Z,26.41
2022-08-25T19:39:24.203Z,26.24
2022-08-25T19:40:23.240Z,26.16
2022-08-25T19:41:23.158Z,26.19
2022-08-25T19:42:34.960Z,25.90
2022-08-25T19:43:24.147Z,25.81
2022-08-25T19:44:23.162Z,25.78
2022-08-25T19:45:23.127Z,25.83
2022-08-25T19:46:23.163Z,25.78
2022-08-25T19:47:23.103Z,25.91
2022-08-25T19:48:23.114Z,25.98
2022-08-25T19:49:23.127Z,26.03
2022-08-25T19:50:23.087Z,26.06
2022-08-25T19:51:23.063Z,26.08
2022-08-25T19:52:23.051Z,26.09
2022-08-25T19:53:23.037Z,26.17
2022-08-25T19:54:23.067Z,26.06
2022-08-25T19:55:23.035Z,26.06
2022-08-25T19:56:23.038Z,26.06
2022-08-25T19:57:28.632Z,26.06
2022-08-25T19:58:23.980Z,26.11
2022-08-25T19:59:22.997Z,26.01
2022-08-25T20:00:23.027Z,25.89
2022-08-25T20:01:22.980Z,25.69
2022-08-25T20:02:23.101Z,25.57
2022-08-25T20:03:22.953Z,25.72
2022-08-25T20:04:24.140Z,25.74
2022-08-25T20:05:23.765Z,25.74
2022-08-25T20:06:22.920Z,25.76
2022-08-25T20:07:22.939Z,25.85
2022-08-25T20:08:30.131Z,25.83
2022-08-25T20:09:38.837Z,25.93
2022-08-25T20:10:24.007Z,25.98
2022-08-25T20:11:22.821Z,26.01
2022-08-25T20:12:22.847Z,25.91
2022-08-25T20:13:22.805Z,25.91
2022-08-25T20:14:22.842Z,25.83
2022-08-25T20:15:22.818Z,25.90
2022-08-25T20:16:22.922Z,25.91
2022-08-25T20:17:23.715Z,25.91
2022-08-25T20:18:22.733Z,25.89
2022-08-25T20:19:23.810Z,25.83
2022-08-25T20:20:22.779Z,25.64
2022-08-25T20:21:22.745Z,25.74
2022-08-25T20:22:26.188Z,25.75
2022-08-25T20:23:23.738Z,25.61
2022-08-25T20:24:22.716Z,25.64
2022-08-25T20:25:22.670Z,25.54
2022-08-25T20:26:22.647Z,25.51
2022-08-25T20:27:23.407Z,25.59
2022-08-25T20:28:34.794Z,25.56
2022-08-25T20:29:23.341Z,25.56
2022-08-25T20:30:23.521Z,25.44
2022-08-25T20:31:23.920Z,25.24
2022-08-25T20:32:23.024Z,25.27
2022-08-25T20:33:23.579Z,25.38
2022-08-25T20:34:23.159Z,25.26
2022-08-25T20:35:26.615Z,25.31
2022-08-25T20:36:22.812Z,25.41
2022-08-25T20:37:22.862Z,25.31
2022-08-25T20:39:43.016Z,25.26
2022-08-25T20:39:44.685Z,25.09
2022-08-25T20:40:44.732Z,25.19
2022-08-25T20:41:44.724Z,25.12
2022-08-25T20:42:44.717Z,25.23
2022-08-25T20:43:44.912Z,25.07
2022-08-25T20:44:44.642Z,24.93
2022-08-25T20:45:44.713Z,25.01
2022-08-25T20:46:44.571Z,24.87
2022-08-25T20:47:44.858Z,24.84
2022-08-25T20:48:44.557Z,24.79
2022-08-25T20:49:44.579Z,24.84
2022-08-25T20:50:44.687Z,24.74
2022-08-25T20:54:14.126Z,24.60
2022-08-25T20:54:17.639Z,24.70
2022-08-25T20:55:19.067Z,24.75
2022-08-25T20:56:17.619Z,24.80
2022-08-25T20:57:17.642Z,24.80
2022-08-25T20:58:17.688Z,24.92
2022-08-25T20:59:17.619Z,24.97
2022-08-25T21:00:17.855Z,24.87
2022-08-25T21:01:22.914Z,24.71
2022-08-25T21:02:19.692Z,24.71
2022-08-25T21:03:17.730Z,24.74
2022-08-25T21:04:17.576Z,24.75
2022-08-25T21:05:17.612Z,24.74
2022-08-25T21:06:17.653Z,24.75
2022-08-25T21:07:17.539Z,24.83
2022-08-25T21:08:17.614Z,24.82
2022-08-25T21:09:17.542Z,24.80
2022-08-25T21:10:17.714Z,24.92
2022-08-25T21:11:17.426Z,24.82
2022-08-25T21:12:17.679Z,24.71
2022-08-25T21:13:17.533Z,24.84
2022-08-25T21:14:17.478Z,24.86
2022-08-25T21:15:18.168Z,25.01
2022-08-25T21:16:17.795Z,24.89
2022-08-25T21:17:19.176Z,24.94
2022-08-25T21:18:17.383Z,24.83
2022-08-25T21:19:26.607Z,24.92
2022-08-25T21:20:18.311Z,24.98
2022-08-25T21:21:17.399Z,24.84
2022-08-25T21:22:17.438Z,24.53
2022-08-25T21:23:17.418Z,24.42
2022-08-25T21:24:17.295Z,24.48
2022-08-25T21:25:17.315Z,24.46
2022-08-25T21:26:17.370Z,24.45
2022-08-25T21:27:17.426Z,24.63
2022-08-25T21:28:17.333Z,24.61
2022-08-25T21:29:17.578Z,24.67
2022-08-25T21:30:17.367Z,24.75
2022-08-25T21:31:17.242Z,24.90
2022-08-25T21:32:17.306Z,24.93
2022-08-25T21:33:17.379Z,24.90
2022-08-25T21:34:17.134Z,24.63
2022-08-25T21:35:17.183Z,24.59
2022-08-25T21:36:17.282Z,24.44
2022-08-25T21:37:17.296Z,24.49
2022-08-25T21:38:17.231Z,24.53
2022-08-25T21:39:17.249Z,24.42
2022-08-25T21:40:17.538Z,24.46
2022-08-25T21:41:17.099Z,24.44
2022-08-25T21:42:17.075Z,24.52
2022-08-25T21:43:18.642Z,24.51
2022-08-25T21:44:17.172Z,24.31
2022-08-25T21:45:17.174Z,24.14
2022-08-25T21:46:17.288Z,24.11
2022-08-25T21:47:21.040Z,24.12
2022-08-25T21:48:17.203Z,24.09
2022-08-25T21:49:17.360Z,24.12
2022-08-25T21:50:17.158Z,24.11
2022-08-25T21:51:17.131Z,24.09
2022-08-25T21:52:17.309Z,24.23
2022-08-25T21:53:17.020Z,24.30
2022-08-25T21:54:17.068Z,24.24
2022-08-25T21:55:17.100Z,24.14
2022-08-25T21:56:16.951Z,24.18
2022-08-25T21:57:16.883Z,24.09
2022-08-25T21:58:17.152Z,24.19
2022-08-25T21:59:16.927Z,24.16
2022-08-25T22:00:17.072Z,24.15
2022-08-25T22:01:16.882Z,24.12
2022-08-25T22:02:21.887Z,24.11
2022-08-25T22:03:17.812Z,24.11
2022-08-25T22:04:16.749Z,24.05
2022-08-25T22:05:16.737Z,24.05
2022-08-25T22:06:16.749Z,24.18
2022-08-25T22:07:16.685Z,23.90
2022-08-25T22:08:17.378Z,23.84
2022-08-25T22:09:16.697Z,23.87
2022-08-25T22:10:18.085Z,23.78
2022-08-25T22:11:16.640Z,23.72
2022-08-25T22:12:16.657Z,23.68
2022-08-25T22:13:16.648Z,23.81
2022-08-25T22:14:16.656Z,23.69
2022-08-25T22:15:16.633Z,23.62
2022-08-25T22:16:16.631Z,23.59
2022-08-25T22:17:20.915Z,23.63
2022-08-25T22:18:16.597Z,23.67
2022-08-25T22:19:16.664Z,23.77
2022-08-25T22:20:16.597Z,23.77
2022-08-25T22:21:16.561Z,23.87
2022-08-25T22:22:16.611Z,23.94
2022-08-25T22:23:20.234Z,23.74
2022-08-25T22:24:16.566Z,23.64
2022-08-25T22:25:16.561Z,23.68
2022-08-25T22:26:16.781Z,23.60
2022-08-25T22:27:17.470Z,23.63
2022-08-25T22:28:16.541Z,23.45
2022-08-25T22:29:25.545Z,23.37
2022-08-25T22:30:17.505Z,23.41
2022-08-25T22:31:20.689Z,23.47
2022-08-25T22:32:16.421Z,23.52
2022-08-25T22:33:16.436Z,23.47
2022-08-25T22:34:16.449Z,23.39
2022-08-25T22:35:16.397Z,23.26
2022-08-25T22:36:16.441Z,23.39
2022-08-25T22:37:16.648Z,23.47
2022-08-25T22:38:16.389Z,23.47
2022-08-25T22:39:16.351Z,23.59
2022-08-25T22:40:16.448Z,23.67
2022-08-25T22:41:18.993Z,23.79
2022-08-25T22:42:17.346Z,23.45
2022-08-25T22:43:16.314Z,23.39
2022-08-25T22:44:16.297Z,23.44
2022-08-25T22:45:16.299Z,23.50
2022-08-25T22:46:17.149Z,23.64
2022-08-25T22:47:16.262Z,23.50
2022-08-25T22:48:16.269Z,23.21
2022-08-25T22:49:16.263Z,23.16
2022-08-25T22:50:17.314Z,23.26
2022-08-25T22:51:16.258Z,23.32